Mackinaw City, MI

4:50 AM EDT on May 25, 2015 (GMT -0400)
Cheboygan | | Change Station
CLOSE
Current Station
Airport
Location: Cheboygan,
Elevation: 640 ft
Nearby Weather Stations

Elev 640 ft 45.65 °N, 84.52 °W | Updated 11 minutes ago

Rain
Rain
52 °F
Feels Like 52 °F
N
0
Wind Variable Wind from North

Today
High -- | Low -- °F
--% Chance of Precip.
Yesterday
High -- | Low -- °F
Precip. -- in
5:57 AM 9:14 PM
Waxing Crescent, 47% visible
Pressure 29.96 in
Visibility 2.5 miles
Clouds Mostly Cloudy 300 ft
Mostly Cloudy 1600 ft
Overcast 2500 ft
Dew Point 52 °F
Humidity 100%
Rainfall 0.00 in
Snow Depth Not available.
UV 0 out of 12
Pollen 9.70 out of 12
Air Quality Not available.
Flu Activity Sporadic
METAR KSLH 250839Z AUTO 00000KT 2 1/2SM RA BKN003 BKN016 OVC025 11/11 A2996 RMK AO2 T01120112

More Conditions Fewer Conditions

Pressure 29.96 in
Visibility 2.5 miles
Clouds Mostly Cloudy 300 ft
Mostly Cloudy 1600 ft
Overcast 2500 ft
Dew Point 52 °F
Humidity 100%
Rainfall 0.00 in
Snow Depth Not available.
UV 0 out of 12
Pollen 9.70 out of 12
Air Quality Not available.
Flu Activity Sporadic
METAR KSLH 250839Z AUTO 00000KT 2 1/2SM RA BKN003 BKN016 OVC025 11/11 A2996 RMK AO2 T01120112

More Conditions Fewer Conditions

Nowcast | as of 4:00 am EDT on May 25, 2015

At 5 am...showers and slight chance of thunderstorms. Temperature 58. East winds 8 mph. At 7 am...showers and slight chance of thunderstorms. Temperature 59. East winds 7 mph. At 9 am...showers and slight chance of thunderstorms. Temperature 62. Southeast winds 6 mph. At 11 am...showers and slight chance of thunderstorms. Temperature 65. Southwest winds 6 mph.

×

10-Day Weather Forecast

Almanac

Astronomy

May. 25, 2015 Rise Set
Actual Time
Civil Twilight
Nautical Twilight
Astronomical Twilight
Moon
Length of Visible Light
Length of Day
Tomorrow will be .
, % of the Moon is Illuminated

Today's Extremes

State Highs State Lows

Community

WunderPhotos

Upload Photos

1,823,959 photos uploaded!

WunderBlogs® & News

Nearby

Air Quality

  Air Quality AQ Index Pollutant
Not available.

Snow Depth

Station Depth Elevation

Earthquake Activity

City Distance Mag. Time & Date
Minimum magnitude displayed is 2.5.

Coastal Water Temperatures

Place Temperature

Stations

Nearby Weather Stations

Station Location Temp. Windchill Dew Point Humidity Wind Precip. Elev Updated Type